createdAt,value
2022-12-26T00:01:52.487Z,98917.34
2022-12-26T00:04:51.180Z,98892.59
2022-12-26T00:07:11.056Z,98909.41
2022-12-26T00:09:39.147Z,98843.91
2022-12-26T00:12:07.589Z,98888.66
2022-12-26T00:14:35.609Z,98917.16
2022-12-26T00:17:03.628Z,98919.81
2022-12-26T00:19:32.953Z,98906.28
2022-12-26T00:22:02.271Z,98882.53
2022-12-26T00:24:30.274Z,98879.59
2022-12-26T00:26:58.269Z,98889.28
2022-12-26T00:29:26.266Z,98892.81
2022-12-26T00:31:54.355Z,98888.53
2022-12-26T00:34:22.306Z,98894.25
2022-12-26T00:36:51.730Z,98920.53
2022-12-26T00:39:19.772Z,98916.31
2022-12-26T00:41:47.764Z,98924.88
2022-12-26T00:44:15.680Z,98880.47
2022-12-26T00:46:43.822Z,98906.22
2022-12-26T00:49:11.737Z,98904.53
2022-12-26T00:51:39.695Z,98918.44
2022-12-26T00:54:09.070Z,98917.22
2022-12-26T00:56:37.164Z,98874.47
2022-12-26T00:59:05.330Z,98870.75
2022-12-26T01:01:34.097Z,98924.44
2022-12-26T01:04:02.251Z,98901.34
2022-12-26T01:06:30.254Z,98903.31
2022-12-26T01:08:59.647Z,98877.16
2022-12-26T01:11:44.218Z,98918.72
2022-12-26T01:14:19.165Z,98930.84
2022-12-26T01:16:48.156Z,98861.47
2022-12-26T01:19:16.150Z,98848.47
2022-12-26T01:21:44.296Z,98910.94
2022-12-26T01:24:13.968Z,98907.81
2022-12-26T01:26:43.581Z,98858.78
2022-12-26T01:29:14.828Z,98874.03
2022-12-26T01:31:42.944Z,98890.53
2022-12-26T01:34:11.729Z,98864.00
2022-12-26T01:36:39.749Z,98850.16
2022-12-26T01:39:08.847Z,98913.19
2022-12-26T01:41:37.602Z,98919.81
2022-12-26T01:44:28.166Z,98926.25
2022-12-26T01:46:56.239Z,98905.72
2022-12-26T01:49:32.007Z,98931.09
2022-12-26T01:52:07.593Z,98929.50
2022-12-26T01:57:27.639Z,98905.03
2022-12-26T01:59:58.496Z,98886.47
2022-12-26T02:02:28.513Z,98901.19
2022-12-26T02:05:16.645Z,98875.81
2022-12-26T02:07:47.256Z,98943.56
2022-12-26T02:10:22.404Z,98932.91
2022-12-26T02:12:51.730Z,98960.09
2022-12-26T02:15:21.322Z,98971.59
2022-12-26T02:17:49.430Z,98931.47
2022-12-26T02:20:22.110Z,98951.53
2022-12-26T02:23:24.429Z,98932.22
2022-12-26T02:26:25.231Z,98962.34
2022-12-26T02:29:19.013Z,98952.66
2022-12-26T02:31:57.600Z,98951.78
2022-12-26T02:34:35.272Z,98939.00
2022-12-26T02:37:22.027Z,98949.19
2022-12-26T02:40:04.625Z,98927.38
2022-12-26T02:42:45.836Z,98943.59
2022-12-26T02:45:40.476Z,98940.53
2022-12-26T02:48:16.569Z,98943.22
2022-12-26T02:51:27.384Z,98930.44
2022-12-26T02:54:20.909Z,98926.88
2022-12-26T03:00:23.473Z,98934.13
2022-12-26T03:03:13.655Z,98958.06
2022-12-26T03:06:04.153Z,98932.91
2022-12-26T03:08:54.113Z,98928.88
2022-12-26T03:11:47.731Z,98938.53
2022-12-26T03:14:20.366Z,98933.56
2022-12-26T03:17:11.228Z,98932.19
2022-12-26T03:19:58.302Z,98924.06
2022-12-26T03:22:32.620Z,98903.72
2022-12-26T03:25:20.183Z,98918.84
2022-12-26T03:27:48.794Z,98914.97
2022-12-26T03:30:34.359Z,98890.44
2022-12-26T03:33:03.085Z,98881.50
2022-12-26T03:35:41.151Z,98892.94
2022-12-26T03:38:37.663Z,98913.28
2022-12-26T03:41:33.021Z,98883.19
2022-12-26T03:44:38.644Z,98871.69
2022-12-26T03:47:39.297Z,98845.03
2022-12-26T03:50:33.339Z,98912.28
2022-12-26T03:53:28.016Z,98884.78
2022-12-26T03:56:22.566Z,98883.09
2022-12-26T03:59:15.206Z,98912.38
2022-12-26T04:02:03.954Z,98920.22
2022-12-26T04:04:53.128Z,98908.66
2022-12-26T04:07:56.383Z,98913.38
2022-12-26T04:10:47.312Z,98896.25
2022-12-26T04:13:41.545Z,98883.66
2022-12-26T04:16:34.005Z,98908.72
2022-12-26T04:19:26.412Z,98898.34
2022-12-26T04:22:18.633Z,98901.97
2022-12-26T04:25:15.875Z,98883.38
2022-12-26T04:28:02.535Z,98828.56
2022-12-26T04:30:53.706Z,98841.78
2022-12-26T04:33:46.928Z,98886.13
2022-12-26T04:36:40.126Z,98849.56
2022-12-26T04:39:29.141Z,98893.25
2022-12-26T04:42:28.480Z,98849.91
2022-12-26T04:45:00.257Z,98849.28
2022-12-26T04:47:34.629Z,98860.06
2022-12-26T04:50:15.725Z,98827.06
2022-12-26T04:53:01.815Z,98842.25
2022-12-26T04:55:32.045Z,98906.25
2022-12-26T04:58:01.946Z,98871.03
2022-12-26T05:00:30.857Z,98893.91
2022-12-26T05:03:29.309Z,98844.16
2022-12-26T05:06:14.815Z,98855.25
2022-12-26T05:09:01.640Z,98884.44
2022-12-26T05:11:30.892Z,98899.72
2022-12-26T05:14:00.023Z,98894.63
2022-12-26T05:16:46.807Z,98900.69
2022-12-26T05:19:35.975Z,98876.94
2022-12-26T05:22:23.461Z,98900.03
2022-12-26T05:25:21.680Z,98887.44
2022-12-26T05:28:07.205Z,98895.66
2022-12-26T05:30:35.198Z,98893.25
2022-12-26T05:33:20.846Z,98872.22
2022-12-26T05:35:50.256Z,98879.75
2022-12-26T05:38:18.247Z,98882.81
2022-12-26T05:40:46.180Z,98894.19
2022-12-26T05:43:14.208Z,98878.56
2022-12-26T05:45:43.234Z,98857.09
2022-12-26T05:48:11.272Z,98834.41
2022-12-26T05:50:39.256Z,98843.31
2022-12-26T05:53:08.732Z,98870.94
2022-12-26T05:55:36.746Z,98860.94
2022-12-26T05:58:04.912Z,98834.25
2022-12-26T06:00:33.200Z,98871.13
2022-12-26T06:03:08.218Z,98882.91
2022-12-26T06:05:36.370Z,98880.47
2022-12-26T06:08:04.382Z,98883.25
2022-12-26T06:10:33.976Z,98858.34
2022-12-26T06:13:02.351Z,98867.16
2022-12-26T06:15:30.418Z,98869.44
2022-12-26T06:17:58.744Z,98854.97
2022-12-26T06:20:26.810Z,98782.38
2022-12-26T06:22:54.761Z,98801.53
2022-12-26T06:25:22.754Z,98848.09
2022-12-26T06:27:52.215Z,98773.16
2022-12-26T06:30:20.235Z,98842.91
2022-12-26T06:32:48.313Z,98830.47
2022-12-26T06:35:16.550Z,98823.78
2022-12-26T06:37:44.650Z,98769.44
2022-12-26T06:40:12.863Z,98816.28
2022-12-26T06:42:40.845Z,98765.56
2022-12-26T06:45:11.715Z,98791.84
2022-12-26T06:47:39.747Z,98814.63
2022-12-26T06:50:08.549Z,98805.44
2022-12-26T06:52:36.656Z,98804.00
2022-12-26T06:55:05.136Z,98840.50
2022-12-26T06:57:33.327Z,98822.44
2022-12-26T07:00:01.510Z,98819.59
2022-12-26T07:02:31.141Z,98799.06
2022-12-26T07:04:59.165Z,98867.47
2022-12-26T07:07:27.218Z,98870.34
2022-12-26T07:09:55.256Z,98856.31
2022-12-26T07:12:23.291Z,98869.84
2022-12-26T07:14:52.061Z,98810.53
2022-12-26T07:17:22.057Z,98844.38
2022-12-26T07:19:52.329Z,98850.66
2022-12-26T07:22:20.389Z,98860.53
2022-12-26T07:24:48.443Z,98865.91
2022-12-26T07:27:16.553Z,98882.94
2022-12-26T07:29:44.566Z,98822.88
2022-12-26T07:32:12.682Z,98875.81
2022-12-26T07:34:40.668Z,98896.31
2022-12-26T07:37:10.479Z,98914.09
2022-12-26T07:39:38.683Z,98870.56
2022-12-26T07:42:06.910Z,98917.25
2022-12-26T07:44:35.010Z,98909.66
2022-12-26T07:47:03.213Z,98936.91
2022-12-26T07:49:31.209Z,98939.00
2022-12-26T07:51:59.201Z,98941.56
2022-12-26T07:54:30.149Z,98907.41
2022-12-26T07:57:15.460Z,98922.25
2022-12-26T07:59:46.271Z,98985.25
2022-12-26T08:02:14.447Z,98939.28
2022-12-26T08:04:42.476Z,98987.19
2022-12-26T08:07:11.239Z,98994.19
2022-12-26T08:09:43.149Z,98985.56
2022-12-26T08:12:11.368Z,98985.25
2022-12-26T08:14:39.381Z,98984.81
2022-12-26T08:17:07.736Z,98941.13
2022-12-26T08:19:35.962Z,98988.31
2022-12-26T08:22:03.966Z,98920.31
2022-12-26T08:24:41.486Z,98990.06
2022-12-26T08:27:12.273Z,98929.78
2022-12-26T08:29:40.210Z,98970.38
2022-12-26T08:32:08.161Z,98990.84
2022-12-26T08:34:37.242Z,99035.69
2022-12-26T08:37:05.268Z,99024.22
2022-12-26T08:39:33.404Z,98995.81
2022-12-26T08:42:01.513Z,98987.81
2022-12-26T08:44:30.917Z,99000.75
2022-12-26T08:47:01.377Z,99059.00
2022-12-26T08:49:32.312Z,99046.41
2022-12-26T08:52:00.409Z,99059.63
2022-12-26T08:54:29.783Z,99039.22
2022-12-26T08:57:00.387Z,99011.16
2022-12-26T09:00:08.391Z,99049.16
2022-12-26T09:02:39.946Z,99010.03
2022-12-26T09:05:12.387Z,99027.22
2022-12-26T09:07:40.360Z,99076.50
2022-12-26T09:10:10.333Z,99085.38
2022-12-26T09:12:38.923Z,99046.56
2022-12-26T09:19:40.079Z,99098.88
2022-12-26T09:22:28.267Z,99068.25
2022-12-26T09:25:00.014Z,99115.59
2022-12-26T09:27:29.605Z,99124.06
2022-12-26T09:29:57.523Z,99127.28
2022-12-26T09:32:25.450Z,99151.63
2022-12-26T09:34:54.829Z,99158.38
2022-12-26T09:37:22.755Z,99156.28
2022-12-26T09:39:50.770Z,99156.50
2022-12-26T09:42:30.526Z,99154.69
2022-12-26T09:45:05.645Z,99171.13
2022-12-26T09:47:35.360Z,99187.69
2022-12-26T09:50:12.375Z,99188.78
2022-12-26T09:52:50.440Z,99161.59
2022-12-26T09:55:30.778Z,99191.03
2022-12-26T09:58:05.532Z,99188.72
2022-12-26T10:00:39.797Z,99133.66
2022-12-26T10:03:10.410Z,99221.59
2022-12-26T10:05:45.359Z,99241.28
2022-12-26T10:08:25.798Z,99239.72
2022-12-26T10:11:02.317Z,99224.63
2022-12-26T10:13:40.053Z,99210.91
2022-12-26T10:16:13.804Z,99219.44
2022-12-26T10:18:49.956Z,99222.78
2022-12-26T10:21:31.377Z,99205.72
2022-12-26T10:24:03.894Z,99216.34
2022-12-26T10:26:35.906Z,99231.09
2022-12-26T10:29:11.941Z,99233.44
2022-12-26T10:31:45.073Z,99235.72
2022-12-26T10:34:19.628Z,99215.09
2022-12-26T10:37:02.297Z,99235.25
2022-12-26T10:39:35.428Z,99186.47
2022-12-26T10:42:14.635Z,99224.84
2022-12-26T10:44:54.414Z,99203.66
2022-12-26T10:47:29.333Z,99226.19
2022-12-26T10:49:59.994Z,99221.34
2022-12-26T10:52:33.984Z,99226.44
2022-12-26T10:55:31.305Z,99226.53
2022-12-26T10:57:54.430Z,99231.09
2022-12-26T11:00:24.457Z,99230.50
2022-12-26T11:03:07.909Z,99232.50
2022-12-26T11:08:39.125Z,99228.06
2022-12-26T11:11:14.585Z,99226.53
2022-12-26T11:13:48.708Z,99225.41
2022-12-26T11:16:29.714Z,99220.91
2022-12-26T11:19:00.418Z,99239.19
2022-12-26T11:21:37.591Z,99188.94
2022-12-26T11:25:06.944Z,99236.53
2022-12-26T11:27:40.380Z,99186.59
2022-12-26T11:30:31.622Z,99204.03
2022-12-26T11:33:27.547Z,99150.50
2022-12-26T11:36:24.458Z,99142.84
2022-12-26T11:39:20.499Z,99136.59
2022-12-26T11:42:34.452Z,99210.41
2022-12-26T11:45:38.736Z,99141.91
2022-12-26T11:48:20.379Z,99218.72
2022-12-26T11:51:10.419Z,99125.44
2022-12-26T11:53:41.666Z,99203.81
2022-12-26T11:56:28.028Z,99139.56
2022-12-26T11:59:54.755Z,99143.19
2022-12-26T12:02:28.239Z,99135.09
2022-12-26T12:05:01.228Z,99212.41
2022-12-26T12:07:45.534Z,99208.72
2022-12-26T12:11:15.994Z,99202.00
2022-12-26T12:14:31.977Z,99208.50
2022-12-26T12:17:17.659Z,99211.38
2022-12-26T12:20:25.271Z,99216.47
2022-12-26T12:23:49.461Z,99131.91
2022-12-26T12:27:04.730Z,99128.94
2022-12-26T12:30:00.480Z,99132.75
2022-12-26T12:32:34.679Z,99163.03
2022-12-26T14:17:19.273Z,99137.72
2022-12-26T14:28:03.470Z,99147.50
2022-12-26T14:33:46.852Z,99109.16
2022-12-26T14:36:32.411Z,99107.69
2022-12-26T14:39:13.913Z,99189.75
2022-12-26T14:42:50.969Z,99188.06
2022-12-26T14:45:49.353Z,99171.88
2022-12-26T15:17:50.989Z,99177.41
2022-12-26T15:31:29.535Z,99139.25
2022-12-26T15:34:07.664Z,99143.69
2022-12-26T15:36:48.046Z,99150.81
2022-12-26T15:39:27.454Z,99125.34
2022-12-26T15:42:04.686Z,99110.38
2022-12-26T15:44:44.247Z,99103.78
2022-12-26T15:47:22.832Z,99128.44
2022-12-26T15:50:04.471Z,99096.72
2022-12-26T15:52:45.010Z,99172.84
2022-12-26T15:55:47.582Z,99160.19
2022-12-26T15:58:37.653Z,99148.53
2022-12-26T16:01:07.366Z,99101.19
2022-12-26T16:03:43.605Z,99139.81
2022-12-26T16:06:33.764Z,99174.66
2022-12-26T16:09:29.037Z,99119.03
2022-12-26T16:11:59.803Z,99155.53
2022-12-26T16:14:31.478Z,99140.00
2022-12-26T16:17:20.610Z,99194.41
2022-12-26T16:19:50.527Z,99097.63
2022-12-26T16:26:18.795Z,99168.81
2022-12-26T16:42:16.693Z,99106.56
2022-12-26T16:44:47.746Z,99159.81
2022-12-26T16:51:31.690Z,99117.53
2022-12-26T16:58:52.006Z,99207.81
2022-12-26T17:01:26.237Z,99169.13
2022-12-26T17:04:09.332Z,99172.22
2022-12-26T17:06:55.032Z,99165.38
2022-12-26T17:09:33.429Z,99143.72
2022-12-26T17:12:49.119Z,99110.41
2022-12-26T17:19:24.392Z,99138.22
2022-12-26T17:22:27.707Z,99181.13
2022-12-26T17:25:26.447Z,99173.75
2022-12-26T17:28:37.632Z,99180.16
2022-12-26T17:31:23.005Z,99178.13
2022-12-26T17:33:59.716Z,99191.28
2022-12-26T17:37:17.294Z,99202.47
2022-12-26T17:39:29.766Z,99210.66
2022-12-26T17:42:12.189Z,99215.88
2022-12-26T17:44:45.015Z,99236.91
2022-12-26T17:47:23.453Z,99236.47
2022-12-26T17:49:59.032Z,99246.06
2022-12-26T17:52:45.261Z,99243.72
2022-12-26T17:55:24.235Z,99242.38
2022-12-26T17:57:55.496Z,99228.00
2022-12-26T18:00:32.488Z,99171.19
2022-12-26T18:03:08.738Z,99190.41
2022-12-26T18:17:37.949Z,99204.34
2022-12-26T18:20:08.085Z,99212.94
2022-12-26T18:22:36.525Z,99248.13
2022-12-26T18:25:12.251Z,99262.81
2022-12-26T18:27:43.652Z,99261.88
2022-12-26T18:30:29.680Z,99267.94
2022-12-26T18:35:44.283Z,99290.25
2022-12-26T18:38:16.821Z,99248.97
2022-12-26T18:40:48.400Z,99254.84
2022-12-26T18:43:25.996Z,99255.28
2022-12-26T18:45:55.151Z,99293.34
2022-12-26T18:48:26.411Z,99280.69
2022-12-26T18:50:54.868Z,99317.16
2022-12-26T18:53:28.865Z,99285.78
2022-12-26T18:55:58.581Z,99363.06
2022-12-26T18:58:26.871Z,99312.09
2022-12-26T19:00:55.080Z,99395.09
2022-12-26T19:03:23.208Z,99338.06
2022-12-26T19:06:43.308Z,99289.16
2022-12-26T19:09:13.712Z,99324.19
2022-12-26T19:11:45.759Z,99379.09
2022-12-26T19:17:20.602Z,99322.88
2022-12-26T19:19:49.575Z,99346.38
2022-12-26T19:22:17.573Z,99389.34
2022-12-26T19:24:46.236Z,99328.19
2022-12-26T19:27:15.612Z,99377.59
2022-12-26T19:29:43.575Z,99375.03
2022-12-26T19:32:11.578Z,99407.53
2022-12-26T19:34:39.488Z,99425.22
2022-12-26T19:37:07.443Z,99409.47
2022-12-26T19:39:35.405Z,99436.41
2022-12-26T19:42:03.401Z,99436.91
2022-12-26T19:44:32.821Z,99390.47
2022-12-26T19:47:11.180Z,99423.63
2022-12-26T19:49:41.095Z,99434.13
2022-12-26T19:52:09.331Z,99427.13
2022-12-26T19:54:37.263Z,99438.03
2022-12-26T19:57:05.814Z,99437.34
2022-12-26T19:59:35.171Z,99449.28
2022-12-26T20:02:03.269Z,99430.53
2022-12-26T20:04:33.753Z,99444.09
2022-12-26T20:07:02.930Z,99431.69
2022-12-26T20:09:31.058Z,99449.31
2022-12-26T20:11:59.190Z,99418.81
2022-12-26T20:14:27.812Z,99449.03
2022-12-26T20:17:07.850Z,99453.88
2022-12-26T20:19:36.833Z,99458.31
2022-12-26T20:22:05.873Z,99438.88
2022-12-26T20:24:33.967Z,99482.97
2022-12-26T20:27:02.293Z,99482.56
2022-12-26T20:29:30.377Z,99476.31
2022-12-26T20:32:00.443Z,99501.69
2022-12-26T20:34:28.433Z,99474.78
2022-12-26T20:36:56.406Z,99500.47
2022-12-26T20:39:25.709Z,99521.03
2022-12-26T20:41:53.714Z,99520.66
2022-12-26T20:44:21.954Z,99538.94
2022-12-26T20:46:49.875Z,99544.13
2022-12-26T20:49:19.267Z,99536.56
2022-12-26T20:51:47.264Z,99528.78
2022-12-26T20:54:16.831Z,99565.47
2022-12-26T20:56:45.979Z,99573.50
2022-12-26T20:59:13.931Z,99573.09
2022-12-26T21:01:42.219Z,99583.53
2022-12-26T21:04:17.318Z,99595.28
2022-12-26T21:06:56.108Z,99577.97
2022-12-26T21:09:24.589Z,99593.44
2022-12-26T21:11:53.160Z,99613.66
2022-12-26T21:14:26.899Z,99606.06
2022-12-26T21:16:59.103Z,99617.34
2022-12-26T21:19:35.721Z,99573.44
2022-12-26T21:22:06.427Z,99631.06
2022-12-26T21:24:34.470Z,99628.09
2022-12-26T21:27:03.132Z,99593.28
2022-12-26T21:29:34.632Z,99598.59
2022-12-26T21:32:04.345Z,99645.75
2022-12-26T21:34:35.288Z,99653.97
2022-12-26T21:37:25.520Z,99638.66
2022-12-26T21:39:55.997Z,99642.97
2022-12-26T21:42:24.065Z,99662.38
2022-12-26T21:44:52.251Z,99651.16
2022-12-26T21:47:20.243Z,99659.28
2022-12-26T21:49:48.310Z,99618.59
2022-12-26T21:52:23.690Z,99661.31
2022-12-26T21:55:10.784Z,99671.06
2022-12-26T21:57:39.578Z,99663.03
2022-12-26T22:00:12.225Z,99668.88
2022-12-26T22:03:00.869Z,99631.25
2022-12-26T22:05:31.189Z,99665.84
2022-12-26T22:08:02.973Z,99699.03
2022-12-26T22:10:51.945Z,99698.03
2022-12-26T22:17:05.356Z,99632.50
2022-12-26T22:19:49.031Z,99636.84
2022-12-26T22:22:17.443Z,99675.97
2022-12-26T22:24:47.286Z,99662.78
2022-12-26T22:27:21.456Z,99643.59
2022-12-26T22:29:52.530Z,99706.03
2022-12-26T22:32:24.548Z,99681.00
2022-12-26T22:34:52.997Z,99738.28
2022-12-26T22:37:29.790Z,99670.88
2022-12-26T22:40:03.209Z,99714.63
2022-12-26T22:42:43.115Z,99726.78
2022-12-26T22:45:21.447Z,99712.22
2022-12-26T22:47:55.216Z,99701.59
2022-12-26T22:50:30.089Z,99773.72
2022-12-26T22:52:59.607Z,99770.31
2022-12-26T22:55:35.567Z,99710.31
2022-12-26T22:58:09.309Z,99758.50
2022-12-26T23:00:44.771Z,99699.66
2022-12-26T23:03:18.098Z,99725.75
2022-12-26T23:05:47.126Z,99794.88
2022-12-26T23:08:18.483Z,99803.53
